Time;durP1;ratioP1;P1;durP2;ratioP2;P2;SDS_P1;SDS_P2;PMS_P1;PMS_P2;Temp;Humidity;BMP_temperature;BMP_pressure;BME280_temperature;BME280_humidity;BME280_pressure;Samples;Min_cycle;Max_cycle;Signal;HPM_P1;HPM_P2
2022/01/01 00:00:13;;;;;;;866.90;425.95;;;;;;;;;;4744221;30;20044;-80
2022/01/01 00:02:58;;;;;;;750.38;388.50;;;;;;;;;;4743592;30;20044;-80
2022/01/01 00:05:44;;;;;;;715.53;353.08;;;;;;;;;;4753614;30;20382;-79
2022/01/01 00:08:30;;;;;;;787.50;359.55;;;;;;;;;;4756600;30;20052;-81
2022/01/01 00:11:15;;;;;;;864.00;352.65;;;;;;;;;;4745770;30;20394;-79
2022/01/01 00:14:01;;;;;;;737.33;342.88;;;;;;;;;;4751046;30;20056;-77
2022/01/01 00:16:46;;;;;;;659.53;331.60;;;;;;;;;;4748187;30;20375;-78
2022/01/01 00:19:32;;;;;;;803.88;338.35;;;;;;;;;;4750360;30;20041;-79
2022/01/01 00:22:17;;;;;;;784.10;316.88;;;;;;;;;;4750619;30;20036;-78
2022/01/01 00:25:04;;;;;;;883.00;347.33;;;;;;;;;;4746793;30;20048;-80
2022/01/01 00:27:50;;;;;;;857.50;336.70;;;;;;;;;;4752227;30;20040;-80
2022/01/01 00:30:35;;;;;;;744.95;314.70;;;;;;;;;;4744749;30;20054;-80
2022/01/01 00:33:21;;;;;;;632.22;299.42;;;;;;;;;;4751654;30;20040;-79
2022/01/01 00:36:06;;;;;;;720.08;332.95;;;;;;;;;;4760413;30;20051;-79
2022/01/01 00:38:52;;;;;;;834.28;337.83;;;;;;;;;;4743056;30;20052;-81
2022/01/01 00:41:37;;;;;;;840.28;347.85;;;;;;;;;;4744735;30;20040;-79
2022/01/01 00:44:24;;;;;;;666.47;306.08;;;;;;;;;;4731851;30;20485;-77
2022/01/01 00:47:10;;;;;;;701.65;323.10;;;;;;;;;;4745544;30;20468;-79
2022/01/01 00:49:55;;;;;;;648.33;335.30;;;;;;;;;;4749594;30;20045;-81
2022/01/01 00:52:42;;;;;;;785.05;385.83;;;;;;;;;;4752792;30;20442;-80
2022/01/01 00:55:28;;;;;;;967.25;401.13;;;;;;;;;;4725688;30;20053;-80
2022/01/01 00:58:13;;;;;;;645.65;385.20;;;;;;;;;;4743279;30;20044;-80
2022/01/01 01:00:59;;;;;;;772.35;374.17;;;;;;;;;;4759701;30;20040;-82
2022/01/01 01:03:45;;;;;;;944.15;358.23;;;;;;;;;;4749463;30;20048;-78
2022/01/01 01:06:31;;;;;;;991.78;371.00;;;;;;;;;;4751050;30;20044;-78
2022/01/01 01:09:17;;;;;;;823.13;348.05;;;;;;;;;;4749346;30;20052;-82
2022/01/01 01:12:02;;;;;;;855.13;352.90;;;;;;;;;;4757098;30;20075;-80
2022/01/01 01:14:48;;;;;;;816.17;352.88;;;;;;;;;;4752616;30;20048;-78
2022/01/01 01:17:33;;;;;;;790.97;362.77;;;;;;;;;;4759035;30;20044;-78
2022/01/01 01:20:20;;;;;;;580.90;319.02;;;;;;;;;;4759269;30;20048;-79
2022/01/01 01:23:06;;;;;;;819.35;356.85;;;;;;;;;;4753247;30;20366;-79
2022/01/01 01:25:50;;;;;;;705.47;338.63;;;;;;;;;;4758237;30;20052;-79
2022/01/01 01:28:37;;;;;;;787.30;343.23;;;;;;;;;;4760094;30;20044;-79
2022/01/01 01:31:28;;;;;;;679.40;339.23;;;;;;;;;;4754315;30;20358;-80
2022/01/01 01:34:14;;;;;;;770.78;315.33;;;;;;;;;;4746526;30;20047;-80
2022/01/01 01:36:59;;;;;;;684.20;288.25;;;;;;;;;;4759932;30;20472;-78
2022/01/01 01:39:45;;;;;;;682.17;295.63;;;;;;;;;;4759823;30;20048;-79
2022/01/01 01:42:31;;;;;;;542.70;257.88;;;;;;;;;;4759174;30;20044;-79
2022/01/01 01:45:21;;;;;;;491.83;223.98;;;;;;;;;;4754280;30;20048;-80
2022/01/01 01:48:06;;;;;;;530.38;248.82;;;;;;;;;;4754350;30;20048;-80
2022/01/01 01:50:51;;;;;;;489.63;229.60;;;;;;;;;;4759516;30;20469;-80
2022/01/01 01:53:38;;;;;;;471.10;211.23;;;;;;;;;;4753434;30;20052;-80
2022/01/01 01:56:26;;;;;;;472.10;216.50;;;;;;;;;;4753907;30;20472;-78
2022/01/01 01:59:13;;;;;;;416.80;201.32;;;;;;;;;;4758968;30;20052;-80
2022/01/01 02:01:58;;;;;;;481.52;211.82;;;;;;;;;;4745992;30;20043;-80
2022/01/01 02:04:45;;;;;;;456.67;199.40;;;;;;;;;;4759396;30;20473;-80
2022/01/01 02:07:31;;;;;;;454.65;217.48;;;;;;;;;;4753185;30;20044;-79
2022/01/01 02:10:17;;;;;;;373.40;152.25;;;;;;;;;;4753397;30;20370;-79
2022/01/01 02:13:13;;;;;;;317.02;159.75;;;;;;;;;;4771396;30;20048;-79
2022/01/01 02:16:27;;;;;;;386.10;178.18;;;;;;;;;;4752963;30;20048;-79
2022/01/01 02:19:13;;;;;;;392.58;180.13;;;;;;;;;;4759164;30;20493;-78
2022/01/01 02:22:03;;;;;;;473.38;209.90;;;;;;;;;;4733225;30;20052;-80
2022/01/01 02:24:49;;;;;;;500.95;242.85;;;;;;;;;;4758765;30;20040;-80
2022/01/01 02:27:36;;;;;;;465.70;258.15;;;;;;;;;;4752878;30;20040;-80
2022/01/01 02:30:22;;;;;;;470.08;265.27;;;;;;;;;;4758977;30;20481;-79
2022/01/01 02:33:08;;;;;;;423.80;218.77;;;;;;;;;;4759137;30;20048;-80
2022/01/01 02:35:53;;;;;;;403.13;211.68;;;;;;;;;;4757861;30;20048;-78
2022/01/01 02:38:39;;;;;;;370.02;198.55;;;;;;;;;;4753688;30;20044;-80
2022/01/01 02:41:26;;;;;;;410.67;212.48;;;;;;;;;;4752892;30;20473;-81
2022/01/01 02:44:14;;;;;;;367.13;192.95;;;;;;;;;;4753695;30;20052;-81
2022/01/01 02:46:59;;;;;;;392.88;187.38;;;;;;;;;;4743116;30;20052;-80
2022/01/01 02:49:49;;;;;;;304.25;150.85;;;;;;;;;;4758553;30;20469;-80
2022/01/01 02:52:34;;;;;;;297.23;153.15;;;;;;;;;;4770878;30;20040;-79
2022/01/01 02:55:20;;;;;;;302.42;151.02;;;;;;;;;;4758922;30;20044;-81
2022/01/01 02:58:05;;;;;;;318.42;157.27;;;;;;;;;;4741848;30;20049;-80
2022/01/01 03:00:50;;;;;;;313.13;156.68;;;;;;;;;;4762712;30;20048;-79
2022/01/01 03:03:39;;;;;;;287.65;150.23;;;;;;;;;;4762039;30;20056;-79
2022/01/01 03:06:28;;;;;;;310.02;159.55;;;;;;;;;;4743419;30;20048;-81
2022/01/01 03:09:23;;;;;;;326.48;170.85;;;;;;;;;;4749946;30;20052;-80
2022/01/01 03:12:10;;;;;;;369.67;177.60;;;;;;;;;;4750137;30;20052;-78
2022/01/01 03:14:57;;;;;;;343.23;170.88;;;;;;;;;;4760823;30;20078;-79
2022/01/01 03:17:42;;;;;;;318.45;166.73;;;;;;;;;;4758654;30;20048;-80
2022/01/01 03:20:28;;;;;;;303.27;163.05;;;;;;;;;;4753187;30;20045;-79
2022/01/01 03:23:13;;;;;;;305.48;161.68;;;;;;;;;;4758851;30;20056;-79
2022/01/01 03:25:59;;;;;;;316.25;172.15;;;;;;;;;;4753129;30;20049;-80
2022/01/01 03:28:44;;;;;;;313.55;169.93;;;;;;;;;;4755787;30;20070;-80
2022/01/01 03:31:30;;;;;;;312.13;169.93;;;;;;;;;;4761721;30;20047;-80
2022/01/01 03:34:15;;;;;;;311.67;166.93;;;;;;;;;;4762149;30;20052;-78
2022/01/01 03:37:01;;;;;;;284.40;154.48;;;;;;;;;;4756277;30;20048;-79
2022/01/01 03:39:49;;;;;;;310.30;160.80;;;;;;;;;;4772510;30;20048;-81
2022/01/01 03:42:34;;;;;;;281.92;149.60;;;;;;;;;;4761737;30;20048;-81
2022/01/01 03:45:20;;;;;;;297.55;158.20;;;;;;;;;;4748299;30;20056;-79
2022/01/01 03:48:05;;;;;;;279.33;147.82;;;;;;;;;;4756096;30;20055;-79
2022/01/01 03:50:51;;;;;;;285.13;149.50;;;;;;;;;;4762021;30;20052;-82
2022/01/01 03:53:37;;;;;;;300.88;159.10;;;;;;;;;;4761412;30;20055;-80
2022/01/01 03:56:22;;;;;;;296.90;154.52;;;;;;;;;;4761252;30;20480;-81
2022/01/01 03:59:08;;;;;;;256.52;137.38;;;;;;;;;;4761316;30;20048;-81
2022/01/01 04:01:55;;;;;;;234.23;123.70;;;;;;;;;;4761617;30;20045;-81
2022/01/01 04:04:41;;;;;;;223.30;121.55;;;;;;;;;;4755643;30;20044;-81
2022/01/01 04:07:27;;;;;;;222.93;119.57;;;;;;;;;;4760887;30;20048;-79
2022/01/01 04:10:13;;;;;;;287.90;144.70;;;;;;;;;;4761287;30;20054;-79
2022/01/01 04:12:59;;;;;;;275.98;142.80;;;;;;;;;;4760968;30;20496;-80
2022/01/01 04:15:45;;;;;;;260.17;137.07;;;;;;;;;;4755297;30;20044;-79
2022/01/01 04:18:40;;;;;;;249.02;128.57;;;;;;;;;;4766614;30;20044;-80
2022/01/01 04:21:24;;;;;;;215.43;111.97;;;;;;;;;;4760615;30;20135;-80
2022/01/01 04:24:09;;;;;;;194.18;104.03;;;;;;;;;;4755142;30;20074;-80
2022/01/01 04:26:54;;;;;;;168.25;89.82;;;;;;;;;;4760975;30;20044;-80
2022/01/01 04:29:44;;;;;;;176.70;90.40;;;;;;;;;;4761013;30;20052;-80
2022/01/01 04:32:29;;;;;;;190.60;100.45;;;;;;;;;;4755226;30;20115;-80
2022/01/01 04:35:15;;;;;;;222.18;113.57;;;;;;;;;;4747282;30;20047;-80
2022/01/01 04:38:00;;;;;;;217.40;113.15;;;;;;;;;;4759873;30;20048;-81
2022/01/01 04:40:45;;;;;;;204.65;107.30;;;;;;;;;;4771794;30;20453;-82
2022/01/01 04:43:31;;;;;;;206.32;112.25;;;;;;;;;;4735889;30;20048;-80
2022/01/01 04:46:17;;;;;;;194.95;106.35;;;;;;;;;;4760713;30;20044;-80
2022/01/01 04:49:02;;;;;;;198.38;99.60;;;;;;;;;;4755356;30;20060;-79
2022/01/01 04:51:51;;;;;;;186.32;100.28;;;;;;;;;;4755741;30;20485;-79
2022/01/01 04:54:40;;;;;;;200.07;107.50;;;;;;;;;;4760426;30;20052;-79
2022/01/01 04:57:30;;;;;;;197.13;103.40;;;;;;;;;;4741896;30;20481;-80
2022/01/01 05:00:15;;;;;;;189.15;102.50;;;;;;;;;;4761169;30;20048;-81
2022/01/01 05:03:00;;;;;;;214.75;113.38;;;;;;;;;;4754204;30;20044;-79
2022/01/01 05:05:46;;;;;;;200.10;108.80;;;;;;;;;;4747436;30;20052;-80
2022/01/01 05:08:31;;;;;;;217.02;114.57;;;;;;;;;;4754203;30;20052;-80
2022/01/01 05:11:17;;;;;;;195.95;110.07;;;;;;;;;;4759660;30;20052;-79
2022/01/01 05:14:03;;;;;;;204.95;105.38;;;;;;;;;;4741482;30;20480;-80
2022/01/01 05:16:51;;;;;;;231.20;115.75;;;;;;;;;;4754006;30;20481;-81
2022/01/01 05:19:37;;;;;;;188.20;102.13;;;;;;;;;;4754539;30;20040;-79
2022/01/01 05:22:22;;;;;;;190.18;100.28;;;;;;;;;;4746668;30;20052;-80
2022/01/01 05:25:07;;;;;;;176.27;93.65;;;;;;;;;;4771824;30;20385;-79
2022/01/01 05:27:52;;;;;;;181.30;92.47;;;;;;;;;;4734333;30;20060;-80
2022/01/01 05:30:38;;;;;;;169.00;88.50;;;;;;;;;;4759678;30;20044;-79
2022/01/01 05:33:23;;;;;;;178.00;87.68;;;;;;;;;;4759672;30;20393;-80
2022/01/01 05:36:09;;;;;;;178.85;94.55;;;;;;;;;;4746948;30;20060;-79
2022/01/01 05:38:55;;;;;;;194.07;97.50;;;;;;;;;;4734613;30;20056;-80
2022/01/01 05:41:40;;;;;;;180.43;93.13;;;;;;;;;;4771653;30;20418;-80
2022/01/01 05:44:26;;;;;;;184.13;96.43;;;;;;;;;;4753747;30;20048;-80
2022/01/01 05:47:11;;;;;;;199.48;102.75;;;;;;;;;;4754305;30;20461;-79
2022/01/01 05:49:58;;;;;;;203.93;102.35;;;;;;;;;;4753281;30;20054;-79
2022/01/01 05:52:44;;;;;;;200.85;103.65;;;;;;;;;;4755668;30;20056;-79
2022/01/01 05:55:29;;;;;;;194.82;101.38;;;;;;;;;;4749638;30;20052;-81
2022/01/01 05:58:15;;;;;;;210.82;108.20;;;;;;;;;;4754672;30;20052;-80
2022/01/01 06:01:00;;;;;;;202.05;107.55;;;;;;;;;;4746697;30;20052;-80
2022/01/01 06:03:46;;;;;;;192.95;95.93;;;;;;;;;;4758458;30;20056;-81
2022/01/01 06:06:31;;;;;;;202.07;104.50;;;;;;;;;;4745733;30;20048;-81
2022/01/01 06:09:17;;;;;;;189.75;101.15;;;;;;;;;;4746238;30;20048;-79
2022/01/01 06:12:03;;;;;;;191.77;102.10;;;;;;;;;;4753104;30;20056;-82
2022/01/01 06:14:48;;;;;;;191.32;103.65;;;;;;;;;;4753408;30;20040;-79
2022/01/01 06:17:34;;;;;;;189.82;98.80;;;;;;;;;;4728104;30;20381;-81
2022/01/01 06:20:20;;;;;;;137.07;72.78;;;;;;;;;;4758778;30;20396;-80
2022/01/01 06:23:06;;;;;;;125.00;64.95;;;;;;;;;;4745660;30;20473;-79
2022/01/01 06:25:52;;;;;;;108.57;55.10;;;;;;;;;;4753196;30;20389;-80
2022/01/01 06:28:37;;;;;;;76.25;39.13;;;;;;;;;;4759180;30;20048;-82
2022/01/01 06:31:23;;;;;;;78.70;38.53;;;;;;;;;;4746242;30;20068;-81
2022/01/01 06:34:09;;;;;;;82.93;41.28;;;;;;;;;;4770424;30;20489;-81
2022/01/01 06:36:54;;;;;;;78.43;39.88;;;;;;;;;;4752387;30;20056;-82
2022/01/01 06:39:40;;;;;;;88.93;40.78;;;;;;;;;;4758092;30;20044;-80
2022/01/01 06:42:25;;;;;;;105.88;54.35;;;;;;;;;;4745769;30;20048;-81
2022/01/01 06:45:11;;;;;;;233.80;106.75;;;;;;;;;;4741805;30;20049;-81
2022/01/01 06:47:56;;;;;;;376.65;167.30;;;;;;;;;;4745812;30;20048;-79
2022/01/01 06:50:44;;;;;;;133.85;64.13;;;;;;;;;;4745597;30;20048;-80
2022/01/01 06:53:29;;;;;;;129.52;69.20;;;;;;;;;;4749651;30;20048;-81
2022/01/01 06:56:15;;;;;;;120.88;58.72;;;;;;;;;;4729571;30;20040;-80
2022/01/01 06:59:01;;;;;;;119.95;58.35;;;;;;;;;;4736677;30;20068;-81
2022/01/01 07:01:46;;;;;;;154.15;79.53;;;;;;;;;;4750160;30;20397;-80
2022/01/01 07:04:32;;;;;;;122.57;62.13;;;;;;;;;;4749876;30;20388;-78
2022/01/01 07:07:17;;;;;;;127.82;67.05;;;;;;;;;;4752773;30;20476;-79
2022/01/01 07:10:08;;;;;;;151.55;81.07;;;;;;;;;;4756624;30;20048;-81
2022/01/01 07:12:54;;;;;;;176.75;95.22;;;;;;;;;;4762261;30;20052;-80
2022/01/01 07:15:39;;;;;;;185.65;97.38;;;;;;;;;;4756435;30;20044;-81
2022/01/01 07:18:25;;;;;;;147.40;75.75;;;;;;;;;;4748883;30;20056;-79
2022/01/01 07:21:11;;;;;;;188.30;95.50;;;;;;;;;;4762241;30;20059;-80
2022/01/01 07:23:56;;;;;;;229.93;126.30;;;;;;;;;;4762114;30;20060;-79
2022/01/01 07:26:41;;;;;;;248.98;134.88;;;;;;;;;;4761964;30;20048;-80
2022/01/01 07:29:27;;;;;;;211.25;112.70;;;;;;;;;;4752501;30;20472;-80
2022/01/01 07:32:12;;;;;;;207.32;119.53;;;;;;;;;;4744640;30;20060;-80
2022/01/01 07:34:58;;;;;;;160.13;90.63;;;;;;;;;;4765566;30;20056;-80
2022/01/01 07:37:44;;;;;;;159.13;90.60;;;;;;;;;;4745374;30;20052;-80
2022/01/01 07:40:30;;;;;;;166.32;95.32;;;;;;;;;;4759628;30;20052;-82
2022/01/01 07:43:17;;;;;;;252.32;136.45;;;;;;;;;;4748448;30;20401;-81
2022/01/01 07:46:02;;;;;;;245.15;135.30;;;;;;;;;;4753367;30;20480;-81
2022/01/01 07:48:48;;;;;;;231.50;142.63;;;;;;;;;;4748426;30;20064;-80
2022/01/01 07:51:33;;;;;;;154.82;91.97;;;;;;;;;;4755044;30;20044;-80
2022/01/01 07:54:18;;;;;;;157.07;91.25;;;;;;;;;;4748325;30;20044;-80
2022/01/01 07:57:04;;;;;;;145.75;86.50;;;;;;;;;;4742090;30;20055;-81
2022/01/01 07:59:50;;;;;;;145.50;83.53;;;;;;;;;;4748293;30;20056;-81
2022/01/01 08:02:43;;;;;;;169.88;98.88;;;;;;;;;;4735574;30;20052;-80
2022/01/01 08:05:28;;;;;;;182.15;104.03;;;;;;;;;;4746903;30;20044;-81
2022/01/01 08:08:13;;;;;;;186.38;118.90;;;;;;;;;;4748403;30;20049;-80
2022/01/01 08:10:59;;;;;;;189.35;117.32;;;;;;;;;;4755142;30;20048;-81
2022/01/01 08:13:44;;;;;;;199.02;121.53;;;;;;;;;;4747295;30;20083;-80
2022/01/01 08:16:30;;;;;;;222.70;137.70;;;;;;;;;;4748099;30;20044;-81
2022/01/01 08:19:16;;;;;;;213.73;130.85;;;;;;;;;;4754205;30;20486;-82
2022/01/01 08:22:01;;;;;;;173.00;95.95;;;;;;;;;;4752053;30;20049;-82
2022/01/01 08:24:47;;;;;;;165.00;99.32;;;;;;;;;;4758206;30;20052;-81
2022/01/01 08:27:33;;;;;;;163.70;94.00;;;;;;;;;;4760085;30;20052;-79
2022/01/01 08:30:18;;;;;;;185.07;110.53;;;;;;;;;;4744825;30;20052;-82
2022/01/01 08:33:04;;;;;;;219.15;130.90;;;;;;;;;;4757395;30;20068;-81
2022/01/01 08:35:52;;;;;;;210.55;127.55;;;;;;;;;;4764036;30;20044;-78
2022/01/01 08:38:37;;;;;;;215.07;130.82;;;;;;;;;;4746927;30;20044;-79
2022/01/01 08:41:22;;;;;;;214.93;130.70;;;;;;;;;;4741045;30;20040;-80
2022/01/01 08:44:08;;;;;;;226.00;137.45;;;;;;;;;;4744014;30;20052;-80
2022/01/01 08:46:54;;;;;;;240.98;147.43;;;;;;;;;;4736361;30;20493;-80
2022/01/01 08:49:39;;;;;;;205.95;123.28;;;;;;;;;;4746540;30;20039;-78
2022/01/01 08:52:25;;;;;;;191.52;117.38;;;;;;;;;;4755043;30;20052;-80
2022/01/01 08:55:11;;;;;;;179.95;106.57;;;;;;;;;;4759767;30;20044;-79
2022/01/01 08:57:56;;;;;;;186.73;110.95;;;;;;;;;;4759290;30;20040;-80
2022/01/01 09:00:41;;;;;;;192.13;113.78;;;;;;;;;;4748582;30;20492;-82
2022/01/01 09:03:27;;;;;;;202.25;123.03;;;;;;;;;;4753124;30;20044;-80
2022/01/01 09:06:13;;;;;;;195.98;123.55;;;;;;;;;;4747398;30;20044;-81
2022/01/01 09:08:58;;;;;;;195.93;118.65;;;;;;;;;;4760372;30;20051;-79
2022/01/01 09:11:44;;;;;;;196.77;117.75;;;;;;;;;;4732048;30;20052;-80
2022/01/01 09:14:32;;;;;;;178.02;104.68;;;;;;;;;;4751218;30;20048;-80
2022/01/01 09:17:51;;;;;;;150.02;90.15;;;;;;;;;;4747299;30;20048;-80
2022/01/01 09:21:18;;;;;;;159.77;94.28;;;;;;;;;;4747597;30;20056;-80
2022/01/01 09:24:30;;;;;;;158.35;92.45;;;;;;;;;;4723548;30;20052;-79
2022/01/01 09:27:30;;;;;;;114.47;65.22;;;;;;;;;;4739244;30;20485;-80
2022/01/01 09:30:28;;;;;;;83.28;47.47;;;;;;;;;;4741315;30;20048;-80
2022/01/01 09:33:54;;;;;;;102.85;60.78;;;;;;;;;;4749092;30;20052;-80
2022/01/01 09:41:19;;;;;;;103.15;56.17;;;;;;;;;;4713227;30;20481;-78
2022/01/01 09:44:14;;;;;;;94.88;55.67;;;;;;;;;;4728615;30;20044;-81
2022/01/01 09:47:00;;;;;;;98.03;55.92;;;;;;;;;;4727926;30;20064;-78
2022/01/01 09:49:45;;;;;;;105.97;61.88;;;;;;;;;;4740666;30;20052;-79
2022/01/01 09:52:34;;;;;;;103.57;58.08;;;;;;;;;;4745440;30;20389;-80
2022/01/01 09:55:30;;;;;;;118.88;65.63;;;;;;;;;;4744790;30;20047;-79
2022/01/01 10:02:46;;;;;;;126.00;70.90;;;;;;;;;;4755038;30;20052;-79
2022/01/01 10:22:28;;;;;;;108.28;52.13;;;;;;;;;;4677586;30;20050;-81
2022/01/01 10:28:17;;;;;;;105.97;52.90;;;;;;;;;;4750408;30;20052;-80
2022/01/01 10:31:08;;;;;;;119.85;62.40;;;;;;;;;;4758878;30;20047;-82
2022/01/01 10:33:54;;;;;;;82.82;48.00;;;;;;;;;;4746240;30;20044;-81
2022/01/01 10:37:28;;;;;;;112.25;61.45;;;;;;;;;;4753863;30;20060;-82
2022/01/01 10:41:19;;;;;;;;;;;;;;;;;;;;;
2022/01/01 10:44:49;;;;;;;;;;;;;;;;;;;;;
2022/01/01 10:57:11;;;;;;;127.18;77.40;;;;;;;;;;4728428;30;20044;-84
2022/01/01 11:00:45;;;;;;;122.75;70.43;;;;;;;;;;4698613;30;20033;-83
2022/01/01 11:09:27;;;;;;;105.82;58.10;;;;;;;;;;4686239;30;20049;-83
2022/01/01 11:12:42;;;;;;;65.78;39.42;;;;;;;;;;4709456;30;20033;-84
2022/01/01 11:15:31;;;;;;;81.50;46.90;;;;;;;;;;4713035;30;20075;-84
2022/01/01 11:18:58;;;;;;;122.30;65.50;;;;;;;;;;4694204;30;20045;-81
2022/01/01 11:22:23;;;;;;;117.82;71.57;;;;;;;;;;4684413;30;20044;-83
2022/01/01 11:31:06;;;;;;;131.05;74.32;;;;;;;;;;4758394;30;20048;-82
2022/01/01 11:38:53;;;;;;;87.63;53.80;;;;;;;;;;4678365;30;20037;-82
2022/01/01 11:41:44;;;;;;;75.97;44.38;;;;;;;;;;4683545;30;20044;-83
2022/01/01 11:45:00;;;;;;;43.95;27.02;;;;;;;;;;4733157;30;20063;-84
2022/01/01 11:47:48;;;;;;;125.40;66.75;;;;;;;;;;4717970;30;20056;-86
2022/01/01 11:50:43;;;;;;;144.70;81.47;;;;;;;;;;4713319;30;20060;-84
2022/01/01 11:53:30;;;;;;;114.35;67.53;;;;;;;;;;4711342;30;20037;-84
2022/01/01 11:56:22;;;;;;;149.23;71.30;;;;;;;;;;4712542;30;20048;-84
2022/01/01 11:59:29;;;;;;;160.50;71.85;;;;;;;;;;4729055;30;20056;-82
2022/01/01 12:02:18;;;;;;;101.50;53.03;;;;;;;;;;4742932;30;20070;-82
2022/01/01 12:05:14;;;;;;;120.93;56.55;;;;;;;;;;4729174;30;20044;-81
2022/01/01 12:07:59;;;;;;;;;;;;;;;;;;4733670;30;20048;-81
2022/01/01 12:10:49;;;;;;;194.45;83.28;;;;;;;;;;4750402;30;20247;-80
2022/01/01 12:13:35;;;;;;;173.70;82.68;;;;;;;;;;4761587;30;20052;-82
2022/01/01 12:16:23;;;;;;;98.80;53.60;;;;;;;;;;4760145;30;20362;-82
2022/01/01 12:19:25;;;;;;;138.85;70.22;;;;;;;;;;4755842;30;20362;-85
2022/01/01 12:22:13;;;;;;;101.03;53.55;;;;;;;;;;4755380;30;20355;-84
2022/01/01 12:25:01;;;;;;;90.10;49.42;;;;;;;;;;4748222;30;20044;-84
2022/01/01 12:27:51;;;;;;;90.28;50.17;;;;;;;;;;4739884;30;20485;-84
2022/01/01 12:31:01;;;;;;;97.53;57.92;;;;;;;;;;4735508;30;20048;-86
2022/01/01 12:34:00;;;;;;;281.15;134.75;;;;;;;;;;4758272;30;20040;-84
2022/01/01 12:37:41;;;;;;;198.30;110.60;;;;;;;;;;4755282;30;20056;-87
2022/01/01 12:45:20;;;;;;;133.65;77.45;;;;;;;;;;4761378;30;20039;-87
2022/01/01 12:48:09;;;;;;;158.25;92.15;;;;;;;;;;4743355;30;20052;-85
2022/01/01 12:51:24;;;;;;;194.60;110.30;;;;;;;;;;4755089;30;20047;-85
2022/01/01 12:54:23;;;;;;;215.13;120.28;;;;;;;;;;4744747;30;20040;-87
2022/01/01 12:57:18;;;;;;;201.95;110.93;;;;;;;;;;4739895;30;20044;-86
2022/01/01 13:00:21;;;;;;;227.18;133.68;;;;;;;;;;4744703;30;20052;-87
2022/01/01 13:03:13;;;;;;;224.38;131.70;;;;;;;;;;4742971;30;20041;-86
2022/01/01 13:06:25;;;;;;;227.73;130.57;;;;;;;;;;4735946;30;20045;-88
2022/01/01 13:09:33;;;;;;;228.50;131.63;;;;;;;;;;4757923;30;20044;-87
2022/01/01 13:12:30;;;;;;;208.07;121.40;;;;;;;;;;4755046;30;20048;-86
2022/01/01 13:20:11;;;;;;;228.25;124.72;;;;;;;;;;4701077;30;20045;-84
2022/01/01 13:23:28;;;;;;;250.27;144.87;;;;;;;;;;4736491;30;20378;-83
2022/01/01 13:26:18;;;;;;;272.45;158.05;;;;;;;;;;4711235;30;20489;-83
2022/01/01 13:29:04;;;;;;;304.05;173.52;;;;;;;;;;4747320;30;20060;-82
2022/01/01 13:31:56;;;;;;;338.38;194.82;;;;;;;;;;4760397;30;20044;-83
2022/01/01 13:34:52;;;;;;;268.35;158.85;;;;;;;;;;4750810;30;20032;-86
2022/01/01 13:37:42;;;;;;;254.32;130.77;;;;;;;;;;4744287;30;20052;-81
2022/01/01 13:40:27;;;;;;;182.65;106.20;;;;;;;;;;4738721;30;20052;-82
2022/01/01 13:43:12;;;;;;;508.00;228.80;;;;;;;;;;4756440;30;20048;-82
2022/01/01 13:46:09;;;;;;;571.08;274.33;;;;;;;;;;4741881;30;20045;-82
2022/01/01 13:48:57;;;;;;;529.10;273.75;;;;;;;;;;4729180;30;20382;-82
2022/01/01 13:51:43;;;;;;;502.25;259.30;;;;;;;;;;4741238;30;20048;-83
2022/01/01 13:54:29;;;;;;;403.85;214.35;;;;;;;;;;4742540;30;20057;-82
2022/01/01 13:57:14;;;;;;;430.35;242.32;;;;;;;;;;4741907;30;20052;-81
2022/01/01 14:00:00;;;;;;;374.38;217.15;;;;;;;;;;4749422;30;20049;-81
2022/01/01 14:02:46;;;;;;;396.08;223.60;;;;;;;;;;4740651;30;20048;-82
2022/01/01 14:05:34;;;;;;;367.95;193.93;;;;;;;;;;4738714;30;20057;-83
2022/01/01 14:08:21;;;;;;;404.67;217.30;;;;;;;;;;4749894;30;20044;-83
2022/01/01 14:11:07;;;;;;;423.67;229.52;;;;;;;;;;4735604;30;20049;-84
2022/01/01 14:14:09;;;;;;;465.98;293.38;;;;;;;;;;4736584;30;20052;-84
2022/01/01 14:16:56;;;;;;;433.90;258.73;;;;;;;;;;4736577;30;20056;-84
2022/01/01 14:19:41;;;;;;;409.55;246.32;;;;;;;;;;4739229;30;20035;-84
2022/01/01 14:22:28;;;;;;;435.10;265.95;;;;;;;;;;4759413;30;20047;-82
2022/01/01 14:25:16;;;;;;;460.23;292.23;;;;;;;;;;4759374;30;20052;-81
2022/01/01 14:28:08;;;;;;;502.23;317.15;;;;;;;;;;4759516;30;20048;-83
2022/01/01 14:30:55;;;;;;;415.63;248.40;;;;;;;;;;4753678;30;20052;-82
2022/01/01 14:33:41;;;;;;;410.65;248.10;;;;;;;;;;4753383;30;20044;-83
2022/01/01 14:36:28;;;;;;;370.85;220.50;;;;;;;;;;4743205;30;20477;-83
2022/01/01 14:39:20;;;;;;;339.88;203.48;;;;;;;;;;4750148;30;20044;-82
2022/01/01 14:42:05;;;;;;;317.42;191.95;;;;;;;;;;4739902;30;20052;-83
2022/01/01 14:44:51;;;;;;;254.55;146.30;;;;;;;;;;4753587;30;20044;-83
2022/01/01 14:47:47;;;;;;;240.95;134.90;;;;;;;;;;4753206;30;20473;-83
2022/01/01 14:50:55;;;;;;;247.82;133.98;;;;;;;;;;4753641;30;20060;-82
2022/01/01 14:54:20;;;;;;;238.13;140.07;;;;;;;;;;4728582;30;20052;-82
2022/01/01 14:57:36;;;;;;;238.25;136.82;;;;;;;;;;4749517;30;20346;-82
2022/01/01 15:00:23;;;;;;;195.95;110.43;;;;;;;;;;4751936;30;20056;-79
2022/01/01 15:03:08;;;;;;;142.82;78.55;;;;;;;;;;4753155;30;20036;-81
2022/01/01 15:05:57;;;;;;;140.88;71.65;;;;;;;;;;4739309;30;20056;-81
2022/01/01 15:08:45;;;;;;;232.02;106.50;;;;;;;;;;4756679;30;20055;-81
2022/01/01 15:11:34;;;;;;;98.78;44.25;;;;;;;;;;4752883;30;20051;-81
2022/01/01 15:14:23;;;;;;;83.70;41.88;;;;;;;;;;4757237;30;20055;-81
2022/01/01 15:17:08;;;;;;;93.10;44.85;;;;;;;;;;4748785;30;20473;-81
2022/01/01 15:19:54;;;;;;;47.42;24.85;;;;;;;;;;4739952;30;20060;-81
2022/01/01 15:22:57;;;;;;;47.65;28.20;;;;;;;;;;4755695;30;20040;-81
2022/01/01 15:25:44;;;;;;;49.88;27.85;;;;;;;;;;4748488;30;20056;-80
2022/01/01 15:28:31;;;;;;;59.35;31.17;;;;;;;;;;4748932;30;20044;-81
2022/01/01 15:31:26;;;;;;;78.35;40.25;;;;;;;;;;4746064;30;20049;-81
2022/01/01 15:34:21;;;;;;;96.13;48.85;;;;;;;;;;4753750;30;20048;-82
2022/01/01 15:37:07;;;;;;;129.85;66.50;;;;;;;;;;4762515;30;20056;-79
2022/01/01 15:40:08;;;;;;;104.05;56.15;;;;;;;;;;4763921;30;20044;-80
2022/01/01 15:42:53;;;;;;;130.32;65.47;;;;;;;;;;4757819;30;20045;-80
2022/01/01 15:45:39;;;;;;;128.63;65.32;;;;;;;;;;4755336;30;20048;-81
2022/01/01 15:48:25;;;;;;;122.30;63.50;;;;;;;;;;4747162;30;20216;-80
2022/01/01 15:51:11;;;;;;;133.73;71.57;;;;;;;;;;4759227;30;20064;-81
2022/01/01 15:53:56;;;;;;;133.30;70.32;;;;;;;;;;4763876;30;20039;-80
2022/01/01 15:57:09;;;;;;;131.38;71.35;;;;;;;;;;4757955;30;20048;-80
2022/01/01 16:00:13;;;;;;;144.63;77.47;;;;;;;;;;4754777;30;20066;-80
2022/01/01 16:03:12;;;;;;;107.18;53.45;;;;;;;;;;4748682;30;20044;-80
2022/01/01 16:05:59;;;;;;;109.13;54.95;;;;;;;;;;4752459;30;20041;-79
2022/01/01 16:08:55;;;;;;;123.40;56.70;;;;;;;;;;4742492;30;20493;-80
2022/01/01 16:11:42;;;;;;;128.45;66.60;;;;;;;;;;4759866;30;20040;-81
2022/01/01 16:14:36;;;;;;;152.15;82.30;;;;;;;;;;4761806;30;20335;-81
2022/01/01 16:17:24;;;;;;;142.52;76.78;;;;;;;;;;4746536;30;20044;-80
2022/01/01 16:20:10;;;;;;;146.00;74.80;;;;;;;;;;4745797;30;20052;-82
2022/01/01 16:22:58;;;;;;;137.43;69.70;;;;;;;;;;4751440;30;20044;-82
2022/01/01 16:25:45;;;;;;;141.10;71.88;;;;;;;;;;4755875;30;20044;-79
2022/01/01 16:28:31;;;;;;;115.57;59.90;;;;;;;;;;4760974;30;20052;-82
2022/01/01 16:31:16;;;;;;;118.57;60.13;;;;;;;;;;4755228;30;20429;-81
2022/01/01 16:34:03;;;;;;;178.63;97.63;;;;;;;;;;4753874;30;20056;-81
2022/01/01 16:36:51;;;;;;;187.52;107.43;;;;;;;;;;4757588;30;20493;-82
2022/01/01 16:39:36;;;;;;;223.27;130.82;;;;;;;;;;4758637;30;20052;-81
2022/01/01 16:42:31;;;;;;;205.80;118.93;;;;;;;;;;4758604;30;20048;-79
2022/01/01 16:45:18;;;;;;;210.95;119.32;;;;;;;;;;4755738;30;20040;-82
2022/01/01 16:48:13;;;;;;;207.32;118.00;;;;;;;;;;4740067;30;20477;-81
2022/01/01 16:51:02;;;;;;;192.80;108.95;;;;;;;;;;4748933;30;20045;-82
2022/01/01 16:53:48;;;;;;;156.30;84.22;;;;;;;;;;4750862;30;20382;-82
2022/01/01 16:56:35;;;;;;;145.73;84.50;;;;;;;;;;4760956;30;20056;-81
2022/01/01 16:59:23;;;;;;;154.98;88.18;;;;;;;;;;4760724;30;20048;-82
2022/01/01 17:02:10;;;;;;;138.82;71.25;;;;;;;;;;4754877;30;20040;-81
2022/01/01 17:05:11;;;;;;;125.13;65.70;;;;;;;;;;4747221;30;20060;-81
2022/01/01 17:07:56;;;;;;;195.40;102.40;;;;;;;;;;4742466;30;20078;-81
2022/01/01 17:10:43;;;;;;;176.85;96.15;;;;;;;;;;4754106;30;20375;-81
2022/01/01 17:13:36;;;;;;;107.63;55.00;;;;;;;;;;4749959;30;20044;-80